sensor_id;sensor_type;location;lat;lon;timestamp;temperature;humidity
6333;DHT22;3199;49.102;8.856;2022-08-01T00:00:22;22.60;65.00
6333;DHT22;3199;49.102;8.856;2022-08-01T00:02:48;22.60;65.30
6333;DHT22;3199;49.102;8.856;2022-08-01T00:05:13;22.50;65.20
6333;DHT22;3199;49.102;8.856;2022-08-01T00:07:39;22.50;65.50
6333;DHT22;3199;49.102;8.856;2022-08-01T00:10:07;22.60;65.70
6333;DHT22;3199;49.102;8.856;2022-08-01T00:12:33;22.60;65.60
6333;DHT22;3199;49.102;8.856;2022-08-01T00:14:59;22.60;65.80
6333;DHT22;3199;49.102;8.856;2022-08-01T00:17:25;22.60;65.80
6333;DHT22;3199;49.102;8.856;2022-08-01T00:19:50;22.50;65.70
6333;DHT22;3199;49.102;8.856;2022-08-01T00:22:16;22.50;66.10
6333;DHT22;3199;49.102;8.856;2022-08-01T00:24:42;22.50;66.20
6333;DHT22;3199;49.102;8.856;2022-08-01T00:27:07;22.50;66.40
6333;DHT22;3199;49.102;8.856;2022-08-01T00:29:33;22.50;66.50
6333;DHT22;3199;49.102;8.856;2022-08-01T00:31:58;22.50;66.90
6333;DHT22;3199;49.102;8.856;2022-08-01T00:34:24;22.40;66.80
6333;DHT22;3199;49.102;8.856;2022-08-01T00:36:49;22.50;66.90
6333;DHT22;3199;49.102;8.856;2022-08-01T00:39:15;22.40;67.00
6333;DHT22;3199;49.102;8.856;2022-08-01T00:41:40;22.40;67.40
6333;DHT22;3199;49.102;8.856;2022-08-01T00:44:06;22.40;67.70
6333;DHT22;3199;49.102;8.856;2022-08-01T00:46:32;22.50;67.40
6333;DHT22;3199;49.102;8.856;2022-08-01T00:48:59;22.50;67.40
6333;DHT22;3199;49.102;8.856;2022-08-01T00:51:25;22.50;67.50
6333;DHT22;3199;49.102;8.856;2022-08-01T00:53:52;22.40;67.30
6333;DHT22;3199;49.102;8.856;2022-08-01T00:56:19;22.40;67.60
6333;DHT22;3199;49.102;8.856;2022-08-01T00:58:45;22.40;67.80
6333;DHT22;3199;49.102;8.856;2022-08-01T01:01:11;22.40;68.00
6333;DHT22;3199;49.102;8.856;2022-08-01T01:03:36;22.30;68.10
6333;DHT22;3199;49.102;8.856;2022-08-01T01:06:07;22.30;68.10
6333;DHT22;3199;49.102;8.856;2022-08-01T01:09:07;22.20;68.40
6333;DHT22;3199;49.102;8.856;2022-08-01T01:11:34;22.20;68.80
6333;DHT22;3199;49.102;8.856;2022-08-01T01:14:06;22.10;69.20
6333;DHT22;3199;49.102;8.856;2022-08-01T01:16:37;22.00;69.30
6333;DHT22;3199;49.102;8.856;2022-08-01T01:19:10;22.00;69.30
6333;DHT22;3199;49.102;8.856;2022-08-01T01:21:54;21.90;69.60
6333;DHT22;3199;49.102;8.856;2022-08-01T01:24:39;21.90;69.80
6333;DHT22;3199;49.102;8.856;2022-08-01T01:27:29;21.90;70.00
6333;DHT22;3199;49.102;8.856;2022-08-01T01:30:00;21.80;70.30
6333;DHT22;3199;49.102;8.856;2022-08-01T01:32:39;21.80;70.50
6333;DHT22;3199;49.102;8.856;2022-08-01T01:35:10;21.80;70.80
6333;DHT22;3199;49.102;8.856;2022-08-01T01:37:40;21.70;71.00
6333;DHT22;3199;49.102;8.856;2022-08-01T01:40:09;21.70;71.30
6333;DHT22;3199;49.102;8.856;2022-08-01T01:42:35;21.70;71.40
6333;DHT22;3199;49.102;8.856;2022-08-01T01:45:03;21.70;71.60
6333;DHT22;3199;49.102;8.856;2022-08-01T01:47:29;21.60;72.10
6333;DHT22;3199;49.102;8.856;2022-08-01T01:49:57;21.60;72.30
6333;DHT22;3199;49.102;8.856;2022-08-01T01:52:25;21.50;72.50
6333;DHT22;3199;49.102;8.856;2022-08-01T01:54:52;21.50;73.00
6333;DHT22;3199;49.102;8.856;2022-08-01T01:57:18;21.50;73.90
6333;DHT22;3199;49.102;8.856;2022-08-01T01:59:46;21.60;74.50
6333;DHT22;3199;49.102;8.856;2022-08-01T02:02:14;21.60;74.40
6333;DHT22;3199;49.102;8.856;2022-08-01T02:04:42;21.60;74.70
6333;DHT22;3199;49.102;8.856;2022-08-01T02:07:12;21.60;75.20
6333;DHT22;3199;49.102;8.856;2022-08-01T02:09:40;21.70;75.50
6333;DHT22;3199;49.102;8.856;2022-08-01T02:12:07;21.70;75.60
6333;DHT22;3199;49.102;8.856;2022-08-01T02:14:35;21.70;75.50
6333;DHT22;3199;49.102;8.856;2022-08-01T02:17:01;21.70;75.60
6333;DHT22;3199;49.102;8.856;2022-08-01T02:19:29;21.70;75.90
6333;DHT22;3199;49.102;8.856;2022-08-01T02:21:59;21.70;75.90
6333;DHT22;3199;49.102;8.856;2022-08-01T02:24:43;21.70;75.20
6333;DHT22;3199;49.102;8.856;2022-08-01T02:27:14;21.60;74.80
6333;DHT22;3199;49.102;8.856;2022-08-01T02:29:50;21.50;75.20
6333;DHT22;3199;49.102;8.856;2022-08-01T02:32:24;21.50;75.50
6333;DHT22;3199;49.102;8.856;2022-08-01T02:34:52;21.40;76.00
6333;DHT22;3199;49.102;8.856;2022-08-01T02:37:20;21.30;76.40
6333;DHT22;3199;49.102;8.856;2022-08-01T02:39:51;21.30;76.70
6333;DHT22;3199;49.102;8.856;2022-08-01T02:42:18;21.20;77.00
6333;DHT22;3199;49.102;8.856;2022-08-01T02:44:46;21.10;77.20
6333;DHT22;3199;49.102;8.856;2022-08-01T02:47:14;21.10;77.30
6333;DHT22;3199;49.102;8.856;2022-08-01T02:49:44;21.10;77.60
6333;DHT22;3199;49.102;8.856;2022-08-01T02:52:13;21.00;77.90
6333;DHT22;3199;49.102;8.856;2022-08-01T02:54:42;21.00;77.90
6333;DHT22;3199;49.102;8.856;2022-08-01T02:57:09;21.00;78.30
6333;DHT22;3199;49.102;8.856;2022-08-01T02:59:37;20.90;78.30
6333;DHT22;3199;49.102;8.856;2022-08-01T03:02:05;20.90;78.70
6333;DHT22;3199;49.102;8.856;2022-08-01T03:04:33;20.90;79.40
6333;DHT22;3199;49.102;8.856;2022-08-01T03:07:01;20.90;79.50
6333;DHT22;3199;49.102;8.856;2022-08-01T03:09:30;20.80;79.70
6333;DHT22;3199;49.102;8.856;2022-08-01T03:11:59;20.80;79.70
6333;DHT22;3199;49.102;8.856;2022-08-01T03:14:26;20.80;80.10
6333;DHT22;3199;49.102;8.856;2022-08-01T03:16:54;20.80;80.30
6333;DHT22;3199;49.102;8.856;2022-08-01T03:19:22;20.70;80.50
6333;DHT22;3199;49.102;8.856;2022-08-01T03:21:49;20.70;81.10
6333;DHT22;3199;49.102;8.856;2022-08-01T03:24:16;20.60;81.30
6333;DHT22;3199;49.102;8.856;2022-08-01T03:26:44;20.60;81.90
6333;DHT22;3199;49.102;8.856;2022-08-01T03:29:17;20.60;82.30
6333;DHT22;3199;49.102;8.856;2022-08-01T03:31:44;20.50;82.60
6333;DHT22;3199;49.102;8.856;2022-08-01T03:34:10;20.50;82.90
6333;DHT22;3199;49.102;8.856;2022-08-01T03:36:44;20.50;83.40
6333;DHT22;3199;49.102;8.856;2022-08-01T03:39:12;20.50;84.90
6333;DHT22;3199;49.102;8.856;2022-08-01T03:41:42;20.60;85.60
6333;DHT22;3199;49.102;8.856;2022-08-01T03:44:13;20.60;86.50
6333;DHT22;3199;49.102;8.856;2022-08-01T03:46:51;20.50;86.80
6333;DHT22;3199;49.102;8.856;2022-08-01T03:49:22;20.50;88.00
6333;DHT22;3199;49.102;8.856;2022-08-01T03:51:49;20.50;89.10
6333;DHT22;3199;49.102;8.856;2022-08-01T03:54:21;20.50;89.40
6333;DHT22;3199;49.102;8.856;2022-08-01T03:56:48;20.40;90.00
6333;DHT22;3199;49.102;8.856;2022-08-01T03:59:16;20.40;90.30
6333;DHT22;3199;49.102;8.856;2022-08-01T04:01:45;20.30;90.90
6333;DHT22;3199;49.102;8.856;2022-08-01T04:04:12;20.30;91.30
6333;DHT22;3199;49.102;8.856;2022-08-01T04:06:39;20.30;92.00
6333;DHT22;3199;49.102;8.856;2022-08-01T04:09:04;20.30;92.20
6333;DHT22;3199;49.102;8.856;2022-08-01T04:11:32;20.30;92.20
6333;DHT22;3199;49.102;8.856;2022-08-01T04:13:58;20.30;92.10
6333;DHT22;3199;49.102;8.856;2022-08-01T04:16:24;20.30;92.20
6333;DHT22;3199;49.102;8.856;2022-08-01T04:18:49;20.30;92.20
6333;DHT22;3199;49.102;8.856;2022-08-01T04:21:18;20.40;92.40
6333;DHT22;3199;49.102;8.856;2022-08-01T04:23:46;20.40;92.90
6333;DHT22;3199;49.102;8.856;2022-08-01T04:26:13;20.50;92.80
6333;DHT22;3199;49.102;8.856;2022-08-01T04:28:41;20.50;92.80
6333;DHT22;3199;49.102;8.856;2022-08-01T04:31:09;20.50;92.90
6333;DHT22;3199;49.102;8.856;2022-08-01T04:33:39;20.50;93.30
6333;DHT22;3199;49.102;8.856;2022-08-01T04:36:06;20.50;93.50
6333;DHT22;3199;49.102;8.856;2022-08-01T04:38:34;20.60;93.30
6333;DHT22;3199;49.102;8.856;2022-08-01T04:41:02;20.60;93.40
6333;DHT22;3199;49.102;8.856;2022-08-01T04:43:28;20.60;93.40
6333;DHT22;3199;49.102;8.856;2022-08-01T04:45:55;20.70;93.30
6333;DHT22;3199;49.102;8.856;2022-08-01T04:48:21;20.70;93.40
6333;DHT22;3199;49.102;8.856;2022-08-01T04:50:49;20.80;93.40
6333;DHT22;3199;49.102;8.856;2022-08-01T04:53:17;20.90;93.40
6333;DHT22;3199;49.102;8.856;2022-08-01T04:55:44;21.10;93.20
6333;DHT22;3199;49.102;8.856;2022-08-01T04:58:10;21.40;93.00
6333;DHT22;3199;49.102;8.856;2022-08-01T05:00:36;21.80;92.50
6333;DHT22;3199;49.102;8.856;2022-08-01T05:03:02;22.20;92.10
6333;DHT22;3199;49.102;8.856;2022-08-01T05:05:27;22.50;91.50
6333;DHT22;3199;49.102;8.856;2022-08-01T05:07:53;22.80;91.00
6333;DHT22;3199;49.102;8.856;2022-08-01T05:10:19;23.20;90.30
6333;DHT22;3199;49.102;8.856;2022-08-01T05:12:44;23.60;89.60
6333;DHT22;3199;49.102;8.856;2022-08-01T05:15:11;24.00;88.00
6333;DHT22;3199;49.102;8.856;2022-08-01T05:17:37;24.10;87.20
6333;DHT22;3199;49.102;8.856;2022-08-01T05:20:03;24.30;86.60
6333;DHT22;3199;49.102;8.856;2022-08-01T05:22:28;24.50;85.90
6333;DHT22;3199;49.102;8.856;2022-08-01T05:24:54;24.70;85.00
6333;DHT22;3199;49.102;8.856;2022-08-01T05:27:20;24.90;83.80
6333;DHT22;3199;49.102;8.856;2022-08-01T05:29:45;25.10;83.30
6333;DHT22;3199;49.102;8.856;2022-08-01T05:32:11;25.20;83.20
6333;DHT22;3199;49.102;8.856;2022-08-01T05:34:37;25.40;82.40
6333;DHT22;3199;49.102;8.856;2022-08-01T05:37:02;25.60;81.80
6333;DHT22;3199;49.102;8.856;2022-08-01T05:39:28;25.80;81.50
6333;DHT22;3199;49.102;8.856;2022-08-01T05:41:54;26.30;80.00
6333;DHT22;3199;49.102;8.856;2022-08-01T05:44:19;26.80;78.40
6333;DHT22;3199;49.102;8.856;2022-08-01T05:46:45;27.10;76.80
6333;DHT22;3199;49.102;8.856;2022-08-01T05:49:11;27.30;75.90
6333;DHT22;3199;49.102;8.856;2022-08-01T05:51:37;27.20;75.20
6333;DHT22;3199;49.102;8.856;2022-08-01T05:54:02;27.10;75.60
6333;DHT22;3199;49.102;8.856;2022-08-01T05:56:28;27.00;75.50
6333;DHT22;3199;49.102;8.856;2022-08-01T05:58:54;27.10;75.20
6333;DHT22;3199;49.102;8.856;2022-08-01T06:01:19;27.10;75.10
6333;DHT22;3199;49.102;8.856;2022-08-01T06:03:45;27.10;75.10
6333;DHT22;3199;49.102;8.856;2022-08-01T06:06:11;27.20;74.60
6333;DHT22;3199;49.102;8.856;2022-08-01T06:08:36;27.20;74.30
6333;DHT22;3199;49.102;8.856;2022-08-01T06:11:02;27.40;74.00
6333;DHT22;3199;49.102;8.856;2022-08-01T06:13:28;27.80;73.30
6333;DHT22;3199;49.102;8.856;2022-08-01T06:15:53;28.40;72.20
6333;DHT22;3199;49.102;8.856;2022-08-01T06:18:19;29.00;70.20
6333;DHT22;3199;49.102;8.856;2022-08-01T06:20:45;29.60;68.50
6333;DHT22;3199;49.102;8.856;2022-08-01T06:23:10;30.10;67.40
6333;DHT22;3199;49.102;8.856;2022-08-01T06:25:36;30.70;65.10
6333;DHT22;3199;49.102;8.856;2022-08-01T06:28:02;31.10;63.70
6333;DHT22;3199;49.102;8.856;2022-08-01T06:30:28;31.50;62.30
6333;DHT22;3199;49.102;8.856;2022-08-01T06:32:53;31.60;60.90
6333;DHT22;3199;49.102;8.856;2022-08-01T06:35:21;31.50;60.70
6333;DHT22;3199;49.102;8.856;2022-08-01T06:37:47;31.90;60.30
6333;DHT22;3199;49.102;8.856;2022-08-01T06:40:12;32.70;59.10
6333;DHT22;3199;49.102;8.856;2022-08-01T06:42:38;32.90;58.10
6333;DHT22;3199;49.102;8.856;2022-08-01T06:45:05;33.20;57.50
6333;DHT22;3199;49.102;8.856;2022-08-01T06:47:31;33.50;56.50
6333;DHT22;3199;49.102;8.856;2022-08-01T06:49:57;33.70;55.60
6333;DHT22;3199;49.102;8.856;2022-08-01T06:52:23;33.60;56.20
6333;DHT22;3199;49.102;8.856;2022-08-01T06:54:48;33.90;55.90
6333;DHT22;3199;49.102;8.856;2022-08-01T06:57:14;34.20;54.60
6333;DHT22;3199;49.102;8.856;2022-08-01T06:59:39;34.30;53.70
6333;DHT22;3199;49.102;8.856;2022-08-01T07:02:05;34.10;54.30
6333;DHT22;3199;49.102;8.856;2022-08-01T07:04:31;33.20;54.60
6333;DHT22;3199;49.102;8.856;2022-08-01T07:06:57;33.10;55.90
6333;DHT22;3199;49.102;8.856;2022-08-01T07:09:23;33.70;55.90
6333;DHT22;3199;49.102;8.856;2022-08-01T07:11:49;34.00;54.40
6333;DHT22;3199;49.102;8.856;2022-08-01T07:14:15;34.50;53.20
6333;DHT22;3199;49.102;8.856;2022-08-01T07:16:41;34.20;53.10
6333;DHT22;3199;49.102;8.856;2022-08-01T07:19:06;34.00;53.30
6333;DHT22;3199;49.102;8.856;2022-08-01T07:21:33;33.50;53.80
6333;DHT22;3199;49.102;8.856;2022-08-01T07:23:58;33.80;54.10
6333;DHT22;3199;49.102;8.856;2022-08-01T07:26:24;34.40;53.10
6333;DHT22;3199;49.102;8.856;2022-08-01T07:28:50;34.30;52.80
6333;DHT22;3199;49.102;8.856;2022-08-01T07:31:15;34.50;52.00
6333;DHT22;3199;49.102;8.856;2022-08-01T07:33:41;34.90;51.20
6333;DHT22;3199;49.102;8.856;2022-08-01T07:36:06;35.30;50.60
6333;DHT22;3199;49.102;8.856;2022-08-01T07:38:32;35.40;50.40
6333;DHT22;3199;49.102;8.856;2022-08-01T07:40:57;35.40;49.90
6333;DHT22;3199;49.102;8.856;2022-08-01T07:43:23;35.30;50.40
6333;DHT22;3199;49.102;8.856;2022-08-01T07:45:48;34.90;50.20
6333;DHT22;3199;49.102;8.856;2022-08-01T07:48:14;34.20;51.20
6333;DHT22;3199;49.102;8.856;2022-08-01T07:50:39;33.90;51.70
6333;DHT22;3199;49.102;8.856;2022-08-01T07:53:05;33.30;52.10
6333;DHT22;3199;49.102;8.856;2022-08-01T07:55:31;32.70;53.80
6333;DHT22;3199;49.102;8.856;2022-08-01T07:57:56;32.00;55.50
6333;DHT22;3199;49.102;8.856;2022-08-01T08:00:22;31.60;57.00
6333;DHT22;3199;49.102;8.856;2022-08-01T08:02:47;31.40;57.30
6333;DHT22;3199;49.102;8.856;2022-08-01T08:05:13;30.70;58.20
6333;DHT22;3199;49.102;8.856;2022-08-01T08:07:38;30.20;58.70
6333;DHT22;3199;49.102;8.856;2022-08-01T08:10:05;29.60;59.20
6333;DHT22;3199;49.102;8.856;2022-08-01T08:12:31;29.40;60.40
6333;DHT22;3199;49.102;8.856;2022-08-01T08:14:57;29.40;60.70
6333;DHT22;3199;49.102;8.856;2022-08-01T08:17:24;29.80;62.30
6333;DHT22;3199;49.102;8.856;2022-08-01T08:19:50;30.20;60.00
6333;DHT22;3199;49.102;8.856;2022-08-01T08:22:16;30.60;58.60
6333;DHT22;3199;49.102;8.856;2022-08-01T08:24:41;31.20;57.40
6333;DHT22;3199;49.102;8.856;2022-08-01T08:27:07;31.90;57.10
6333;DHT22;3199;49.102;8.856;2022-08-01T08:29:33;31.90;55.80
6333;DHT22;3199;49.102;8.856;2022-08-01T08:31:59;32.00;55.30
6333;DHT22;3199;49.102;8.856;2022-08-01T08:34:26;32.00;54.70
6333;DHT22;3199;49.102;8.856;2022-08-01T08:36:53;32.50;54.50
6333;DHT22;3199;49.102;8.856;2022-08-01T08:39:20;33.10;53.90
6333;DHT22;3199;49.102;8.856;2022-08-01T08:41:45;32.90;53.50
6333;DHT22;3199;49.102;8.856;2022-08-01T08:44:11;32.80;54.30
6333;DHT22;3199;49.102;8.856;2022-08-01T08:46:44;33.40;54.60
6333;DHT22;3199;49.102;8.856;2022-08-01T08:49:13;33.70;52.60
6333;DHT22;3199;49.102;8.856;2022-08-01T08:51:42;33.70;53.50
6333;DHT22;3199;49.102;8.856;2022-08-01T08:54:11;34.10;52.30
6333;DHT22;3199;49.102;8.856;2022-08-01T08:56:38;34.70;51.30
6333;DHT22;3199;49.102;8.856;2022-08-01T08:59:04;34.80;50.60
6333;DHT22;3199;49.102;8.856;2022-08-01T09:01:31;34.20;50.40
6333;DHT22;3199;49.102;8.856;2022-08-01T09:04:02;33.00;51.70
6333;DHT22;3199;49.102;8.856;2022-08-01T09:06:28;32.20;53.70
6333;DHT22;3199;49.102;8.856;2022-08-01T09:08:55;32.20;54.20
6333;DHT22;3199;49.102;8.856;2022-08-01T09:11:21;32.00;54.60
6333;DHT22;3199;49.102;8.856;2022-08-01T09:16:31;31.90;55.80
6333;DHT22;3199;49.102;8.856;2022-08-01T09:19:07;32.00;54.30
6333;DHT22;3199;49.102;8.856;2022-08-01T09:21:33;32.00;55.30
6333;DHT22;3199;49.102;8.856;2022-08-01T09:23:58;31.90;55.10
6333;DHT22;3199;49.102;8.856;2022-08-01T09:26:33;31.80;55.30
6333;DHT22;3199;49.102;8.856;2022-08-01T09:29:00;32.30;55.10
6333;DHT22;3199;49.102;8.856;2022-08-01T09:31:28;32.70;54.30
6333;DHT22;3199;49.102;8.856;2022-08-01T09:33:58;32.90;54.10
6333;DHT22;3199;49.102;8.856;2022-08-01T09:36:26;32.90;54.40
6333;DHT22;3199;49.102;8.856;2022-08-01T09:38:54;33.00;54.50
6333;DHT22;3199;49.102;8.856;2022-08-01T09:41:30;33.30;53.50
6333;DHT22;3199;49.102;8.856;2022-08-01T09:43:58;33.20;52.60
6333;DHT22;3199;49.102;8.856;2022-08-01T09:46:24;33.30;53.30
6333;DHT22;3199;49.102;8.856;2022-08-01T09:49:01;33.70;53.50
6333;DHT22;3199;49.102;8.856;2022-08-01T09:51:28;33.80;53.40
6333;DHT22;3199;49.102;8.856;2022-08-01T09:53:55;33.70;52.30
6333;DHT22;3199;49.102;8.856;2022-08-01T09:56:21;33.30;53.50
6333;DHT22;3199;49.102;8.856;2022-08-01T10:01:15;33.10;53.80
6333;DHT22;3199;49.102;8.856;2022-08-01T10:03:41;33.50;53.80
6333;DHT22;3199;49.102;8.856;2022-08-01T10:06:22;33.70;52.50
6333;DHT22;3199;49.102;8.856;2022-08-01T10:08:48;34.00;52.80
6333;DHT22;3199;49.102;8.856;2022-08-01T10:11:14;34.00;51.10
6333;DHT22;3199;49.102;8.856;2022-08-01T10:13:40;34.10;51.50
6333;DHT22;3199;49.102;8.856;2022-08-01T10:16:06;33.50;51.10
6333;DHT22;3199;49.102;8.856;2022-08-01T10:18:33;32.90;52.50
6333;DHT22;3199;49.102;8.856;2022-08-01T10:21:03;32.70;53.10
6333;DHT22;3199;49.102;8.856;2022-08-01T10:23:34;32.70;52.80
6333;DHT22;3199;49.102;8.856;2022-08-01T10:26:00;32.90;52.70
6333;DHT22;3199;49.102;8.856;2022-08-01T10:28:30;32.90;52.20
6333;DHT22;3199;49.102;8.856;2022-08-01T10:30:57;32.40;53.00
6333;DHT22;3199;49.102;8.856;2022-08-01T10:33:24;31.90;54.10
6333;DHT22;3199;49.102;8.856;2022-08-01T10:35:51;31.90;55.50
6333;DHT22;3199;49.102;8.856;2022-08-01T10:38:16;32.30;55.10
6333;DHT22;3199;49.102;8.856;2022-08-01T10:40:42;32.50;54.70
6333;DHT22;3199;49.102;8.856;2022-08-01T10:43:12;32.30;54.20
6333;DHT22;3199;49.102;8.856;2022-08-01T10:45:40;32.00;54.50
6333;DHT22;3199;49.102;8.856;2022-08-01T10:48:18;31.80;54.90
6333;DHT22;3199;49.102;8.856;2022-08-01T10:50:51;31.70;54.70
6333;DHT22;3199;49.102;8.856;2022-08-01T10:53:18;31.50;55.00
6333;DHT22;3199;49.102;8.856;2022-08-01T10:55:47;31.40;55.60
6333;DHT22;3199;49.102;8.856;2022-08-01T10:58:13;31.20;55.90
6333;DHT22;3199;49.102;8.856;2022-08-01T11:00:38;31.10;56.30
6333;DHT22;3199;49.102;8.856;2022-08-01T11:03:04;31.20;57.30
6333;DHT22;3199;49.102;8.856;2022-08-01T11:05:34;31.50;57.00
6333;DHT22;3199;49.102;8.856;2022-08-01T11:08:22;32.00;55.90
6333;DHT22;3199;49.102;8.856;2022-08-01T11:10:47;32.50;55.80
6333;DHT22;3199;49.102;8.856;2022-08-01T11:13:13;32.70;54.30
6333;DHT22;3199;49.102;8.856;2022-08-01T11:15:40;32.60;53.60
6333;DHT22;3199;49.102;8.856;2022-08-01T11:20:57;32.60;54.20
6333;DHT22;3199;49.102;8.856;2022-08-01T11:23:23;32.70;54.70
6333;DHT22;3199;49.102;8.856;2022-08-01T11:30:47;32.00;53.70
6333;DHT22;3199;49.102;8.856;2022-08-01T11:33:14;31.70;54.30
6333;DHT22;3199;49.102;8.856;2022-08-01T11:38:44;30.80;56.40
6333;DHT22;3199;49.102;8.856;2022-08-01T11:41:24;30.60;57.50
6333;DHT22;3199;49.102;8.856;2022-08-01T11:52:07;31.50;56.50
6333;DHT22;3199;49.102;8.856;2022-08-01T11:54:35;31.80;55.90
6333;DHT22;3199;49.102;8.856;2022-08-01T11:57:06;31.90;55.70
6333;DHT22;3199;49.102;8.856;2022-08-01T11:59:44;32.30;55.40
6333;DHT22;3199;49.102;8.856;2022-08-01T12:02:34;32.50;54.70
6333;DHT22;3199;49.102;8.856;2022-08-01T12:05:05;32.50;55.00
6333;DHT22;3199;49.102;8.856;2022-08-01T12:07:32;32.50;54.50
6333;DHT22;3199;49.102;8.856;2022-08-01T12:10:05;32.50;54.70
6333;DHT22;3199;49.102;8.856;2022-08-01T12:12:32;32.40;54.80
6333;DHT22;3199;49.102;8.856;2022-08-01T12:15:05;32.30;54.50
6333;DHT22;3199;49.102;8.856;2022-08-01T12:17:41;32.20;55.30
6333;DHT22;3199;49.102;8.856;2022-08-01T12:20:10;32.30;55.60
6333;DHT22;3199;49.102;8.856;2022-08-01T12:22:36;32.80;55.50
6333;DHT22;3199;49.102;8.856;2022-08-01T12:25:13;33.00;54.40
6333;DHT22;3199;49.102;8.856;2022-08-01T12:27:42;32.90;54.30
6333;DHT22;3199;49.102;8.856;2022-08-01T12:30:10;32.70;54.20
6333;DHT22;3199;49.102;8.856;2022-08-01T12:32:38;32.40;54.30
6333;DHT22;3199;49.102;8.856;2022-08-01T12:37:39;32.00;55.10
6333;DHT22;3199;49.102;8.856;2022-08-01T12:40:12;31.80;55.10
6333;DHT22;3199;49.102;8.856;2022-08-01T12:42:41;31.70;56.10
6333;DHT22;3199;49.102;8.856;2022-08-01T12:45:08;31.60;55.80
6333;DHT22;3199;49.102;8.856;2022-08-01T12:47:38;31.70;56.20
6333;DHT22;3199;49.102;8.856;2022-08-01T12:50:16;31.80;56.10
6333;DHT22;3199;49.102;8.856;2022-08-01T12:52:42;32.00;55.80
6333;DHT22;3199;49.102;8.856;2022-08-01T12:57:37;32.80;54.00
6333;DHT22;3199;49.102;8.856;2022-08-01T13:00:20;33.10;53.60
6333;DHT22;3199;49.102;8.856;2022-08-01T13:02:48;33.20;52.50
6333;DHT22;3199;49.102;8.856;2022-08-01T13:05:14;33.30;52.50
6333;DHT22;3199;49.102;8.856;2022-08-01T13:07:47;33.40;52.20
6333;DHT22;3199;49.102;8.856;2022-08-01T13:10:26;33.70;52.30
6333;DHT22;3199;49.102;8.856;2022-08-01T13:12:55;33.80;51.70
6333;DHT22;3199;49.102;8.856;2022-08-01T13:15:27;33.90;50.70
6333;DHT22;3199;49.102;8.856;2022-08-01T13:17:54;34.10;50.40
6333;DHT22;3199;49.102;8.856;2022-08-01T13:20:28;34.00;49.20
6333;DHT22;3199;49.102;8.856;2022-08-01T13:22:54;33.70;49.90
6333;DHT22;3199;49.102;8.856;2022-08-01T13:25:20;33.30;50.30
6333;DHT22;3199;49.102;8.856;2022-08-01T13:27:45;33.10;50.90
6333;DHT22;3199;49.102;8.856;2022-08-01T13:32:37;33.20;51.50
6333;DHT22;3199;49.102;8.856;2022-08-01T13:37:28;33.20;50.90
6333;DHT22;3199;49.102;8.856;2022-08-01T13:39:53;33.10;51.10
6333;DHT22;3199;49.102;8.856;2022-08-01T13:42:19;32.80;51.80
6333;DHT22;3199;49.102;8.856;2022-08-01T13:44:44;32.60;51.80
6333;DHT22;3199;49.102;8.856;2022-08-01T13:47:13;32.20;52.00
6333;DHT22;3199;49.102;8.856;2022-08-01T13:49:38;31.90;52.20
6333;DHT22;3199;49.102;8.856;2022-08-01T13:52:04;31.80;52.60
6333;DHT22;3199;49.102;8.856;2022-08-01T13:54:33;31.80;52.40
6333;DHT22;3199;49.102;8.856;2022-08-01T13:56:58;31.70;52.30
6333;DHT22;3199;49.102;8.856;2022-08-01T13:59:24;31.60;52.40
6333;DHT22;3199;49.102;8.856;2022-08-01T14:01:49;31.50;52.40
6333;DHT22;3199;49.102;8.856;2022-08-01T14:04:15;31.40;52.80
6333;DHT22;3199;49.102;8.856;2022-08-01T14:06:40;31.40;53.00
6333;DHT22;3199;49.102;8.856;2022-08-01T14:09:06;31.50;53.10
6333;DHT22;3199;49.102;8.856;2022-08-01T14:11:32;31.70;53.50
6333;DHT22;3199;49.102;8.856;2022-08-01T14:13:57;31.70;52.60
6333;DHT22;3199;49.102;8.856;2022-08-01T14:16:23;31.70;52.10
6333;DHT22;3199;49.102;8.856;2022-08-01T14:18:49;31.70;53.10
6333;DHT22;3199;49.102;8.856;2022-08-01T14:21:15;31.90;52.80
6333;DHT22;3199;49.102;8.856;2022-08-01T14:23:41;32.00;52.30
6333;DHT22;3199;49.102;8.856;2022-08-01T14:26:08;31.90;52.30
6333;DHT22;3199;49.102;8.856;2022-08-01T14:28:34;31.80;52.30
6333;DHT22;3199;49.102;8.856;2022-08-01T14:30:59;31.80;52.30
6333;DHT22;3199;49.102;8.856;2022-08-01T14:33:26;31.80;52.60
6333;DHT22;3199;49.102;8.856;2022-08-01T14:35:51;31.80;53.10
6333;DHT22;3199;49.102;8.856;2022-08-01T14:38:17;32.00;52.40
6333;DHT22;3199;49.102;8.856;2022-08-01T14:40:43;32.00;52.50
6333;DHT22;3199;49.102;8.856;2022-08-01T14:43:08;32.10;52.30
6333;DHT22;3199;49.102;8.856;2022-08-01T14:45:34;32.10;52.10
6333;DHT22;3199;49.102;8.856;2022-08-01T14:48:00;32.10;52.60
6333;DHT22;3199;49.102;8.856;2022-08-01T14:50:25;32.00;53.10
6333;DHT22;3199;49.102;8.856;2022-08-01T14:52:54;31.90;52.50
6333;DHT22;3199;49.102;8.856;2022-08-01T14:55:20;31.90;52.20
6333;DHT22;3199;49.102;8.856;2022-08-01T14:57:48;31.70;52.50
6333;DHT22;3199;49.102;8.856;2022-08-01T15:00:14;31.60;53.10
6333;DHT22;3199;49.102;8.856;2022-08-01T15:02:40;31.50;53.30
6333;DHT22;3199;49.102;8.856;2022-08-01T15:05:06;31.50;53.00
6333;DHT22;3199;49.102;8.856;2022-08-01T15:07:32;31.40;52.70
6333;DHT22;3199;49.102;8.856;2022-08-01T15:09:58;31.40;52.80
6333;DHT22;3199;49.102;8.856;2022-08-01T15:12:23;31.40;52.80
6333;DHT22;3199;49.102;8.856;2022-08-01T15:14:49;31.50;52.60
6333;DHT22;3199;49.102;8.856;2022-08-01T15:17:28;31.70;52.80
6333;DHT22;3199;49.102;8.856;2022-08-01T15:19:55;32.00;52.10
6333;DHT22;3199;49.102;8.856;2022-08-01T15:22:22;32.10;52.50
6333;DHT22;3199;49.102;8.856;2022-08-01T15:24:49;32.20;52.00
6333;DHT22;3199;49.102;8.856;2022-08-01T15:27:16;32.20;52.00
6333;DHT22;3199;49.102;8.856;2022-08-01T15:29:42;32.20;51.90
6333;DHT22;3199;49.102;8.856;2022-08-01T15:32:08;32.20;52.20
6333;DHT22;3199;49.102;8.856;2022-08-01T15:34:34;32.10;52.40
6333;DHT22;3199;49.102;8.856;2022-08-01T15:37:01;32.00;51.60
6333;DHT22;3199;49.102;8.856;2022-08-01T15:39:27;31.70;52.20
6333;DHT22;3199;49.102;8.856;2022-08-01T15:41:53;31.40;52.40
6333;DHT22;3199;49.102;8.856;2022-08-01T15:44:18;31.30;52.60
6333;DHT22;3199;49.102;8.856;2022-08-01T15:46:49;31.10;53.10
6333;DHT22;3199;49.102;8.856;2022-08-01T15:49:15;31.00;53.20
6333;DHT22;3199;49.102;8.856;2022-08-01T15:51:41;30.80;53.50
6333;DHT22;3199;49.102;8.856;2022-08-01T15:54:06;30.70;53.60
6333;DHT22;3199;49.102;8.856;2022-08-01T15:56:33;30.80;54.20
6333;DHT22;3199;49.102;8.856;2022-08-01T15:58:59;30.70;54.10
6333;DHT22;3199;49.102;8.856;2022-08-01T16:01:24;30.70;54.50
6333;DHT22;3199;49.102;8.856;2022-08-01T16:03:54;30.70;54.00
6333;DHT22;3199;49.102;8.856;2022-08-01T16:06:20;30.70;54.00
6333;DHT22;3199;49.102;8.856;2022-08-01T16:08:46;30.70;53.70
6333;DHT22;3199;49.102;8.856;2022-08-01T16:11:11;30.50;53.70
6333;DHT22;3199;49.102;8.856;2022-08-01T16:13:37;30.50;54.40
6333;DHT22;3199;49.102;8.856;2022-08-01T16:16:03;30.30;54.60
6333;DHT22;3199;49.102;8.856;2022-08-01T16:18:29;30.20;54.90
6333;DHT22;3199;49.102;8.856;2022-08-01T16:20:55;30.20;55.00
6333;DHT22;3199;49.102;8.856;2022-08-01T16:23:23;30.10;55.20
6333;DHT22;3199;49.102;8.856;2022-08-01T16:25:48;30.10;55.30
6333;DHT22;3199;49.102;8.856;2022-08-01T16:28:14;29.90;55.40
6333;DHT22;3199;49.102;8.856;2022-08-01T16:30:40;29.90;55.90
6333;DHT22;3199;49.102;8.856;2022-08-01T16:33:06;29.70;56.20
6333;DHT22;3199;49.102;8.856;2022-08-01T16:35:31;29.50;56.50
6333;DHT22;3199;49.102;8.856;2022-08-01T16:37:57;29.30;57.10